sensor_id;sensor_type;location;lat;lon;timestamp;P1;durP1;ratioP1;P2;durP2;ratioP2
48945;SDS011;34999;50.940;3.998;2023-09-30T00:00:02;8.10;;;5.90;;
48945;SDS011;34999;50.940;3.998;2023-09-30T00:02:37;8.40;;;5.93;;
48945;SDS011;34999;50.940;3.998;2023-09-30T00:05:05;9.70;;;7.10;;
48945;SDS011;34999;50.940;3.998;2023-09-30T00:07:34;10.77;;;6.53;;
48945;SDS011;34999;50.940;3.998;2023-09-30T00:10:03;8.83;;;7.03;;
48945;SDS011;34999;50.940;3.998;2023-09-30T00:12:33;13.27;;;7.37;;
48945;SDS011;34999;50.940;3.998;2023-09-30T00:15:01;11.63;;;7.23;;
48945;SDS011;34999;50.940;3.998;2023-09-30T00:17:30;12.50;;;7.73;;
48945;SDS011;34999;50.940;3.998;2023-09-30T00:20:00;11.30;;;8.13;;
48945;SDS011;34999;50.940;3.998;2023-09-30T00:22:30;12.77;;;7.90;;
48945;SDS011;34999;50.940;3.998;2023-09-30T00:24:59;11.90;;;8.23;;
48945;SDS011;34999;50.940;3.998;2023-09-30T00:27:27;12.17;;;8.10;;
48945;SDS011;34999;50.940;3.998;2023-09-30T00:29:55;11.17;;;8.03;;
48945;SDS011;34999;50.940;3.998;2023-09-30T00:32:24;15.63;;;8.30;;
48945;SDS011;34999;50.940;3.998;2023-09-30T00:34:52;7.80;;;6.90;;
48945;SDS011;34999;50.940;3.998;2023-09-30T00:37:22;11.17;;;7.27;;
48945;SDS011;34999;50.940;3.998;2023-09-30T00:39:51;10.67;;;7.43;;
48945;SDS011;34999;50.940;3.998;2023-09-30T00:42:19;9.23;;;8.13;;
48945;SDS011;34999;50.940;3.998;2023-09-30T00:44:47;12.10;;;7.40;;
48945;SDS011;34999;50.940;3.998;2023-09-30T00:47:15;13.23;;;7.50;;
48945;SDS011;34999;50.940;3.998;2023-09-30T00:49:44;13.53;;;8.00;;
48945;SDS011;34999;50.940;3.998;2023-09-30T00:52:12;9.67;;;7.73;;
48945;SDS011;34999;50.940;3.998;2023-09-30T00:54:42;9.57;;;7.23;;
48945;SDS011;34999;50.940;3.998;2023-09-30T00:57:12;11.57;;;7.73;;
48945;SDS011;34999;50.940;3.998;2023-09-30T00:59:41;10.40;;;7.23;;
48945;SDS011;34999;50.940;3.998;2023-09-30T01:02:10;7.83;;;7.03;;
48945;SDS011;34999;50.940;3.998;2023-09-30T01:04:38;9.93;;;7.63;;
48945;SDS011;34999;50.940;3.998;2023-09-30T01:07:08;10.93;;;7.63;;
48945;SDS011;34999;50.940;3.998;2023-09-30T01:09:40;9.77;;;6.97;;
48945;SDS011;34999;50.940;3.998;2023-09-30T01:12:10;12.67;;;7.50;;
48945;SDS011;34999;50.940;3.998;2023-09-30T01:14:38;9.40;;;7.37;;
48945;SDS011;34999;50.940;3.998;2023-09-30T01:17:09;11.77;;;7.60;;
48945;SDS011;34999;50.940;3.998;2023-09-30T01:19:39;14.70;;;8.43;;
48945;SDS011;34999;50.940;3.998;2023-09-30T01:22:10;12.93;;;8.23;;
48945;SDS011;34999;50.940;3.998;2023-09-30T01:24:38;15.63;;;8.10;;
48945;SDS011;34999;50.940;3.998;2023-09-30T01:27:08;11.93;;;8.10;;
48945;SDS011;34999;50.940;3.998;2023-09-30T01:29:37;9.07;;;7.70;;
48945;SDS011;34999;50.940;3.998;2023-09-30T01:32:05;12.73;;;7.90;;
48945;SDS011;34999;50.940;3.998;2023-09-30T01:34:36;14.20;;;7.83;;
48945;SDS011;34999;50.940;3.998;2023-09-30T01:37:04;10.40;;;6.80;;
48945;SDS011;34999;50.940;3.998;2023-09-30T01:39:34;11.47;;;7.17;;
48945;SDS011;34999;50.940;3.998;2023-09-30T01:42:02;10.00;;;7.30;;
48945;SDS011;34999;50.940;3.998;2023-09-30T01:44:31;10.80;;;7.53;;
48945;SDS011;34999;50.940;3.998;2023-09-30T01:46:59;12.70;;;7.10;;
48945;SDS011;34999;50.940;3.998;2023-09-30T01:49:28;11.60;;;7.40;;
48945;SDS011;34999;50.940;3.998;2023-09-30T01:51:57;12.20;;;7.20;;
48945;SDS011;34999;50.940;3.998;2023-09-30T01:54:25;9.00;;;7.33;;
48945;SDS011;34999;50.940;3.998;2023-09-30T01:56:55;11.50;;;7.90;;
48945;SDS011;34999;50.940;3.998;2023-09-30T01:59:25;12.50;;;7.37;;
48945;SDS011;34999;50.940;3.998;2023-09-30T02:01:54;11.50;;;7.70;;
48945;SDS011;34999;50.940;3.998;2023-09-30T02:04:22;10.77;;;7.67;;
48945;SDS011;34999;50.940;3.998;2023-09-30T02:06:51;11.53;;;7.80;;
48945;SDS011;34999;50.940;3.998;2023-09-30T02:09:19;11.67;;;6.90;;
48945;SDS011;34999;50.940;3.998;2023-09-30T02:11:47;14.03;;;8.03;;
48945;SDS011;34999;50.940;3.998;2023-09-30T02:14:17;12.83;;;7.83;;
48945;SDS011;34999;50.940;3.998;2023-09-30T02:16:45;12.73;;;8.10;;
48945;SDS011;34999;50.940;3.998;2023-09-30T02:19:14;19.17;;;10.00;;
48945;SDS011;34999;50.940;3.998;2023-09-30T02:21:42;14.77;;;9.20;;
48945;SDS011;34999;50.940;3.998;2023-09-30T02:24:10;14.23;;;9.03;;
48945;SDS011;34999;50.940;3.998;2023-09-30T02:26:39;16.10;;;9.60;;
48945;SDS011;34999;50.940;3.998;2023-09-30T02:29:07;16.70;;;9.97;;
48945;SDS011;34999;50.940;3.998;2023-09-30T02:31:37;16.27;;;9.13;;
48945;SDS011;34999;50.940;3.998;2023-09-30T02:34:06;16.33;;;10.40;;
48945;SDS011;34999;50.940;3.998;2023-09-30T02:36:35;16.07;;;9.63;;
48945;SDS011;34999;50.940;3.998;2023-09-30T02:39:04;22.70;;;10.50;;
48945;SDS011;34999;50.940;3.998;2023-09-30T02:41:35;17.43;;;9.27;;
48945;SDS011;34999;50.940;3.998;2023-09-30T02:44:04;20.53;;;10.63;;
48945;SDS011;34999;50.940;3.998;2023-09-30T02:46:32;18.50;;;10.17;;
48945;SDS011;34999;50.940;3.998;2023-09-30T02:49:02;18.33;;;10.27;;
48945;SDS011;34999;50.940;3.998;2023-09-30T02:51:30;19.20;;;10.17;;
48945;SDS011;34999;50.940;3.998;2023-09-30T02:53:59;23.80;;;10.73;;
48945;SDS011;34999;50.940;3.998;2023-09-30T02:56:29;18.40;;;10.03;;
48945;SDS011;34999;50.940;3.998;2023-09-30T02:58:58;18.50;;;10.80;;
48945;SDS011;34999;50.940;3.998;2023-09-30T03:01:28;17.70;;;10.57;;
48945;SDS011;34999;50.940;3.998;2023-09-30T03:03:57;18.50;;;11.00;;
48945;SDS011;34999;50.940;3.998;2023-09-30T03:06:27;23.60;;;11.40;;
48945;SDS011;34999;50.940;3.998;2023-09-30T03:08:56;21.60;;;10.63;;
48945;SDS011;34999;50.940;3.998;2023-09-30T03:11:24;18.63;;;10.70;;
48945;SDS011;34999;50.940;3.998;2023-09-30T03:13:53;19.20;;;10.57;;
48945;SDS011;34999;50.940;3.998;2023-09-30T03:16:22;18.60;;;10.90;;
48945;SDS011;34999;50.940;3.998;2023-09-30T03:18:50;22.80;;;11.30;;
48945;SDS011;34999;50.940;3.998;2023-09-30T03:21:22;19.03;;;10.87;;
48945;SDS011;34999;50.940;3.998;2023-09-30T03:23:52;23.33;;;11.53;;
48945;SDS011;34999;50.940;3.998;2023-09-30T03:26:20;23.87;;;11.03;;
48945;SDS011;34999;50.940;3.998;2023-09-30T03:28:50;22.27;;;11.90;;
48945;SDS011;34999;50.940;3.998;2023-09-30T03:31:20;20.60;;;11.40;;
48945;SDS011;34999;50.940;3.998;2023-09-30T03:33:49;17.90;;;10.90;;
48945;SDS011;34999;50.940;3.998;2023-09-30T03:36:20;21.60;;;10.93;;
48945;SDS011;34999;50.940;3.998;2023-09-30T03:38:52;23.33;;;11.70;;
48945;SDS011;34999;50.940;3.998;2023-09-30T03:41:21;20.70;;;11.33;;
48945;SDS011;34999;50.940;3.998;2023-09-30T03:43:49;23.63;;;11.03;;
48945;SDS011;34999;50.940;3.998;2023-09-30T03:46:18;24.73;;;10.97;;
48945;SDS011;34999;50.940;3.998;2023-09-30T03:48:46;19.97;;;10.40;;
48945;SDS011;34999;50.940;3.998;2023-09-30T03:51:15;18.03;;;10.50;;
48945;SDS011;34999;50.940;3.998;2023-09-30T03:53:44;20.47;;;10.93;;
48945;SDS011;34999;50.940;3.998;2023-09-30T03:56:14;18.67;;;11.30;;
48945;SDS011;34999;50.940;3.998;2023-09-30T03:58:45;18.17;;;10.00;;
48945;SDS011;34999;50.940;3.998;2023-09-30T04:01:14;20.90;;;10.80;;
48945;SDS011;34999;50.940;3.998;2023-09-30T04:03:43;19.97;;;10.43;;
48945;SDS011;34999;50.940;3.998;2023-09-30T04:06:12;27.93;;;11.53;;
48945;SDS011;34999;50.940;3.998;2023-09-30T04:08:40;22.33;;;10.63;;
48945;SDS011;34999;50.940;3.998;2023-09-30T04:11:10;17.60;;;10.43;;
48945;SDS011;34999;50.940;3.998;2023-09-30T04:13:45;17.70;;;10.43;;
48945;SDS011;34999;50.940;3.998;2023-09-30T04:16:13;22.43;;;10.57;;
48945;SDS011;34999;50.940;3.998;2023-09-30T04:18:42;23.50;;;10.73;;
48945;SDS011;34999;50.940;3.998;2023-09-30T04:21:10;20.20;;;10.43;;
48945;SDS011;34999;50.940;3.998;2023-09-30T04:23:38;21.70;;;10.80;;
48945;SDS011;34999;50.940;3.998;2023-09-30T04:26:08;22.73;;;11.10;;
48945;SDS011;34999;50.940;3.998;2023-09-30T04:28:36;22.97;;;11.30;;
48945;SDS011;34999;50.940;3.998;2023-09-30T04:31:06;18.37;;;10.80;;
48945;SDS011;34999;50.940;3.998;2023-09-30T04:33:35;22.27;;;10.80;;
48945;SDS011;34999;50.940;3.998;2023-09-30T04:36:04;19.97;;;10.40;;
48945;SDS011;34999;50.940;3.998;2023-09-30T04:38:35;21.43;;;9.87;;
48945;SDS011;34999;50.940;3.998;2023-09-30T04:41:03;22.53;;;11.47;;
48945;SDS011;34999;50.940;3.998;2023-09-30T04:43:34;22.87;;;11.03;;
48945;SDS011;34999;50.940;3.998;2023-09-30T04:46:04;28.27;;;11.60;;
48945;SDS011;34999;50.940;3.998;2023-09-30T04:48:37;17.50;;;9.83;;
48945;SDS011;34999;50.940;3.998;2023-09-30T04:51:06;21.97;;;10.53;;
48945;SDS011;34999;50.940;3.998;2023-09-30T04:53:36;17.20;;;10.43;;
48945;SDS011;34999;50.940;3.998;2023-09-30T04:56:04;18.43;;;11.03;;
48945;SDS011;34999;50.940;3.998;2023-09-30T04:58:33;23.57;;;10.70;;
48945;SDS011;34999;50.940;3.998;2023-09-30T05:01:01;20.63;;;10.43;;
48945;SDS011;34999;50.940;3.998;2023-09-30T05:03:31;18.47;;;10.43;;
48945;SDS011;34999;50.940;3.998;2023-09-30T05:06:00;23.37;;;10.80;;
48945;SDS011;34999;50.940;3.998;2023-09-30T05:08:32;20.03;;;10.83;;
48945;SDS011;34999;50.940;3.998;2023-09-30T05:11:00;19.80;;;10.33;;
48945;SDS011;34999;50.940;3.998;2023-09-30T05:13:28;25.87;;;10.97;;
48945;SDS011;34999;50.940;3.998;2023-09-30T05:15:57;23.37;;;10.87;;
48945;SDS011;34999;50.940;3.998;2023-09-30T05:18:25;20.73;;;10.83;;
48945;SDS011;34999;50.940;3.998;2023-09-30T05:20:56;20.77;;;10.83;;
48945;SDS011;34999;50.940;3.998;2023-09-30T05:23:24;28.00;;;11.90;;
48945;SDS011;34999;50.940;3.998;2023-09-30T05:25:53;23.17;;;11.13;;
48945;SDS011;34999;50.940;3.998;2023-09-30T05:28:21;24.47;;;11.30;;
48945;SDS011;34999;50.940;3.998;2023-09-30T05:30:49;30.03;;;12.00;;
48945;SDS011;34999;50.940;3.998;2023-09-30T05:33:18;31.70;;;11.70;;
48945;SDS011;34999;50.940;3.998;2023-09-30T05:35:46;30.40;;;13.07;;
48945;SDS011;34999;50.940;3.998;2023-09-30T05:38:16;24.07;;;11.07;;
48945;SDS011;34999;50.940;3.998;2023-09-30T05:40:46;24.60;;;11.77;;
48945;SDS011;34999;50.940;3.998;2023-09-30T05:43:15;25.23;;;11.97;;
48945;SDS011;34999;50.940;3.998;2023-09-30T05:45:43;25.20;;;11.20;;
48945;SDS011;34999;50.940;3.998;2023-09-30T05:48:24;26.50;;;11.10;;
48945;SDS011;34999;50.940;3.998;2023-09-30T05:50:52;27.87;;;11.97;;
48945;SDS011;34999;50.940;3.998;2023-09-30T05:53:22;29.03;;;12.53;;
48945;SDS011;34999;50.940;3.998;2023-09-30T05:55:51;25.73;;;12.13;;
48945;SDS011;34999;50.940;3.998;2023-09-30T05:58:20;26.27;;;13.60;;
48945;SDS011;34999;50.940;3.998;2023-09-30T06:00:50;28.37;;;12.77;;
48945;SDS011;34999;50.940;3.998;2023-09-30T06:03:18;24.77;;;12.63;;
48945;SDS011;34999;50.940;3.998;2023-09-30T06:05:48;24.43;;;11.70;;
48945;SDS011;34999;50.940;3.998;2023-09-30T06:08:16;27.13;;;12.57;;
48945;SDS011;34999;50.940;3.998;2023-09-30T06:10:46;20.87;;;11.30;;
48945;SDS011;34999;50.940;3.998;2023-09-30T06:13:15;27.77;;;11.90;;
48945;SDS011;34999;50.940;3.998;2023-09-30T06:15:43;25.07;;;11.47;;
48945;SDS011;34999;50.940;3.998;2023-09-30T06:18:13;23.07;;;11.47;;
48945;SDS011;34999;50.940;3.998;2023-09-30T06:20:41;20.53;;;11.53;;
48945;SDS011;34999;50.940;3.998;2023-09-30T06:23:10;24.33;;;11.40;;
48945;SDS011;34999;50.940;3.998;2023-09-30T06:25:38;29.53;;;11.47;;
48945;SDS011;34999;50.940;3.998;2023-09-30T06:28:09;25.00;;;11.30;;
48945;SDS011;34999;50.940;3.998;2023-09-30T06:30:37;30.00;;;12.10;;
48945;SDS011;34999;50.940;3.998;2023-09-30T06:33:09;28.07;;;11.83;;
48945;SDS011;34999;50.940;3.998;2023-09-30T06:35:41;24.93;;;11.67;;
48945;SDS011;34999;50.940;3.998;2023-09-30T06:38:17;26.10;;;10.37;;
48945;SDS011;34999;50.940;3.998;2023-09-30T06:40:46;23.87;;;10.90;;
48945;SDS011;34999;50.940;3.998;2023-09-30T06:43:18;20.80;;;10.60;;
48945;SDS011;34999;50.940;3.998;2023-09-30T06:45:46;23.03;;;10.87;;
48945;SDS011;34999;50.940;3.998;2023-09-30T06:48:15;30.73;;;10.90;;
48945;SDS011;34999;50.940;3.998;2023-09-30T06:50:44;22.60;;;10.87;;
48945;SDS011;34999;50.940;3.998;2023-09-30T06:53:14;24.53;;;11.17;;
48945;SDS011;34999;50.940;3.998;2023-09-30T06:55:43;21.67;;;9.77;;
48945;SDS011;34999;50.940;3.998;2023-09-30T06:58:12;19.90;;;10.40;;
48945;SDS011;34999;50.940;3.998;2023-09-30T07:00:42;24.00;;;10.57;;
48945;SDS011;34999;50.940;3.998;2023-09-30T07:03:11;22.07;;;10.63;;
48945;SDS011;34999;50.940;3.998;2023-09-30T07:05:42;18.60;;;9.37;;
48945;SDS011;34999;50.940;3.998;2023-09-30T07:08:10;25.53;;;10.23;;
48945;SDS011;34999;50.940;3.998;2023-09-30T07:10:39;20.17;;;8.80;;
48945;SDS011;34999;50.940;3.998;2023-09-30T07:13:08;18.83;;;9.27;;
48945;SDS011;34999;50.940;3.998;2023-09-30T07:15:36;21.77;;;8.77;;
48945;SDS011;34999;50.940;3.998;2023-09-30T07:18:06;29.13;;;9.77;;
48945;SDS011;34999;50.940;3.998;2023-09-30T07:20:35;20.37;;;9.37;;
48945;SDS011;34999;50.940;3.998;2023-09-30T07:23:03;22.33;;;8.20;;
48945;SDS011;34999;50.940;3.998;2023-09-30T07:25:45;23.67;;;9.10;;
48945;SDS011;34999;50.940;3.998;2023-09-30T07:28:14;19.30;;;8.00;;
48945;SDS011;34999;50.940;3.998;2023-09-30T07:30:43;20.03;;;8.27;;
48945;SDS011;34999;50.940;3.998;2023-09-30T07:33:13;22.83;;;8.63;;
48945;SDS011;34999;50.940;3.998;2023-09-30T07:35:42;19.40;;;7.90;;
48945;SDS011;34999;50.940;3.998;2023-09-30T07:38:10;21.00;;;7.20;;
48945;SDS011;34999;50.940;3.998;2023-09-30T07:40:42;22.47;;;8.10;;
48945;SDS011;34999;50.940;3.998;2023-09-30T07:43:10;17.90;;;6.40;;
48945;SDS011;34999;50.940;3.998;2023-09-30T07:45:39;18.60;;;6.10;;
48945;SDS011;34999;50.940;3.998;2023-09-30T07:48:10;16.27;;;6.50;;
48945;SDS011;34999;50.940;3.998;2023-09-30T07:50:40;11.37;;;5.87;;
48945;SDS011;34999;50.940;3.998;2023-09-30T07:53:09;20.60;;;5.93;;
48945;SDS011;34999;50.940;3.998;2023-09-30T07:55:38;17.37;;;6.00;;
48945;SDS011;34999;50.940;3.998;2023-09-30T07:58:07;18.90;;;6.10;;
48945;SDS011;34999;50.940;3.998;2023-09-30T08:00:35;20.43;;;6.13;;
48945;SDS011;34999;50.940;3.998;2023-09-30T08:03:03;15.97;;;5.70;;
48945;SDS011;34999;50.940;3.998;2023-09-30T08:05:34;24.50;;;6.17;;
48945;SDS011;34999;50.940;3.998;2023-09-30T08:08:03;20.17;;;6.03;;
48945;SDS011;34999;50.940;3.998;2023-09-30T08:10:33;24.27;;;6.03;;
48945;SDS011;34999;50.940;3.998;2023-09-30T08:13:03;18.00;;;5.70;;
48945;SDS011;34999;50.940;3.998;2023-09-30T08:15:31;20.13;;;5.73;;
48945;SDS011;34999;50.940;3.998;2023-09-30T08:18:00;17.77;;;5.60;;
48945;SDS011;34999;50.940;3.998;2023-09-30T08:20:29;15.93;;;4.77;;
48945;SDS011;34999;50.940;3.998;2023-09-30T08:22:59;23.53;;;6.00;;
48945;SDS011;34999;50.940;3.998;2023-09-30T08:25:27;23.00;;;5.90;;
48945;SDS011;34999;50.940;3.998;2023-09-30T08:27:56;16.90;;;5.70;;
48945;SDS011;34999;50.940;3.998;2023-09-30T08:30:25;22.20;;;4.83;;
48945;SDS011;34999;50.940;3.998;2023-09-30T08:32:53;15.87;;;5.17;;
48945;SDS011;34999;50.940;3.998;2023-09-30T08:35:21;19.53;;;5.00;;
48945;SDS011;34999;50.940;3.998;2023-09-30T08:37:50;18.70;;;5.57;;
48945;SDS011;34999;50.940;3.998;2023-09-30T08:40:21;21.87;;;6.57;;
48945;SDS011;34999;50.940;3.998;2023-09-30T08:42:51;22.30;;;6.13;;
48945;SDS011;34999;50.940;3.998;2023-09-30T08:45:20;17.33;;;5.87;;
48945;SDS011;34999;50.940;3.998;2023-09-30T08:47:49;22.03;;;6.17;;
48945;SDS011;34999;50.940;3.998;2023-09-30T08:50:18;20.37;;;6.33;;
48945;SDS011;34999;50.940;3.998;2023-09-30T08:52:47;19.77;;;6.40;;
48945;SDS011;34999;50.940;3.998;2023-09-30T08:55:17;20.33;;;6.90;;
48945;SDS011;34999;50.940;3.998;2023-09-30T08:57:47;18.90;;;6.33;;
48945;SDS011;34999;50.940;3.998;2023-09-30T09:00:18;18.27;;;7.07;;
48945;SDS011;34999;50.940;3.998;2023-09-30T09:02:48;18.40;;;7.20;;
48945;SDS011;34999;50.940;3.998;2023-09-30T09:05:18;18.27;;;6.27;;
48945;SDS011;34999;50.940;3.998;2023-09-30T09:07:46;16.37;;;6.63;;
48945;SDS011;34999;50.940;3.998;2023-09-30T09:10:14;21.00;;;7.13;;
48945;SDS011;34999;50.940;3.998;2023-09-30T09:12:43;20.00;;;6.83;;
48945;SDS011;34999;50.940;3.998;2023-09-30T09:15:25;21.80;;;7.87;;
48945;SDS011;34999;50.940;3.998;2023-09-30T09:17:55;19.57;;;7.03;;
48945;SDS011;34999;50.940;3.998;2023-09-30T09:20:24;18.40;;;6.37;;
48945;SDS011;34999;50.940;3.998;2023-09-30T09:22:53;26.10;;;7.00;;
48945;SDS011;34999;50.940;3.998;2023-09-30T09:25:24;20.03;;;7.30;;
48945;SDS011;34999;50.940;3.998;2023-09-30T09:27:53;19.37;;;6.93;;
48945;SDS011;34999;50.940;3.998;2023-09-30T09:30:26;20.07;;;7.23;;
48945;SDS011;34999;50.940;3.998;2023-09-30T09:32:59;19.63;;;6.87;;
48945;SDS011;34999;50.940;3.998;2023-09-30T09:35:29;14.57;;;6.67;;
48945;SDS011;34999;50.940;3.998;2023-09-30T09:38:00;12.17;;;5.93;;
48945;SDS011;34999;50.940;3.998;2023-09-30T09:40:33;17.63;;;6.43;;
48945;SDS011;34999;50.940;3.998;2023-09-30T09:43:04;16.20;;;5.70;;
48945;SDS011;34999;50.940;3.998;2023-09-30T09:45:33;18.67;;;7.77;;
48945;SDS011;34999;50.940;3.998;2023-09-30T09:48:03;16.50;;;6.63;;
48945;SDS011;34999;50.940;3.998;2023-09-30T09:50:34;14.10;;;6.40;;
48945;SDS011;34999;50.940;3.998;2023-09-30T09:53:04;18.67;;;6.67;;
48945;SDS011;34999;50.940;3.998;2023-09-30T09:55:33;18.13;;;6.57;;
48945;SDS011;34999;50.940;3.998;2023-09-30T09:58:06;17.50;;;5.73;;
48945;SDS011;34999;50.940;3.998;2023-09-30T10:00:37;17.47;;;5.80;;
48945;SDS011;34999;50.940;3.998;2023-09-30T10:03:07;18.33;;;5.20;;
48945;SDS011;34999;50.940;3.998;2023-09-30T10:05:36;15.70;;;5.30;;
48945;SDS011;34999;50.940;3.998;2023-09-30T10:08:07;10.37;;;4.67;;
48945;SDS011;34999;50.940;3.998;2023-09-30T10:10:38;13.33;;;4.37;;
48945;SDS011;34999;50.940;3.998;2023-09-30T10:13:08;14.10;;;5.23;;
48945;SDS011;34999;50.940;3.998;2023-09-30T10:15:39;20.20;;;5.10;;
48945;SDS011;34999;50.940;3.998;2023-09-30T10:18:08;17.63;;;5.27;;
48945;SDS011;34999;50.940;3.998;2023-09-30T10:20:42;17.27;;;5.33;;
48945;SDS011;34999;50.940;3.998;2023-09-30T10:23:18;13.30;;;4.70;;
48945;SDS011;34999;50.940;3.998;2023-09-30T10:25:52;17.67;;;5.30;;
48945;SDS011;34999;50.940;3.998;2023-09-30T10:28:35;14.97;;;5.40;;
48945;SDS011;34999;50.940;3.998;2023-09-30T10:31:08;15.27;;;5.00;;
48945;SDS011;34999;50.940;3.998;2023-09-30T10:36:44;14.73;;;4.10;;
48945;SDS011;34999;50.940;3.998;2023-09-30T10:39:14;20.50;;;4.97;;
48945;SDS011;34999;50.940;3.998;2023-09-30T10:41:51;16.80;;;5.20;;
48945;SDS011;34999;50.940;3.998;2023-09-30T10:44:35;14.30;;;4.70;;
48945;SDS011;34999;50.940;3.998;2023-09-30T10:50:05;16.13;;;4.43;;
48945;SDS011;34999;50.940;3.998;2023-09-30T10:53:13;12.00;;;4.27;;
48945;SDS011;34999;50.940;3.998;2023-09-30T10:55:42;23.67;;;5.03;;
48945;SDS011;34999;50.940;3.998;2023-09-30T10:58:12;15.70;;;3.93;;
48945;SDS011;34999;50.940;3.998;2023-09-30T11:00:51;12.87;;;3.97;;
48945;SDS011;34999;50.940;3.998;2023-09-30T11:03:21;13.20;;;4.17;;
48945;SDS011;34999;50.940;3.998;2023-09-30T11:05:50;13.40;;;4.07;;
48945;SDS011;34999;50.940;3.998;2023-09-30T11:08:37;11.67;;;4.10;;
48945;SDS011;34999;50.940;3.998;2023-09-30T11:11:08;14.13;;;3.30;;
48945;SDS011;34999;50.940;3.998;2023-09-30T11:13:36;11.73;;;3.57;;
48945;SDS011;34999;50.940;3.998;2023-09-30T11:16:07;12.17;;;3.17;;
48945;SDS011;34999;50.940;3.998;2023-09-30T11:18:37;9.77;;;3.33;;
48945;SDS011;34999;50.940;3.998;2023-09-30T11:21:06;14.40;;;3.17;;
48945;SDS011;34999;50.940;3.998;2023-09-30T11:23:37;13.80;;;3.80;;
48945;SDS011;34999;50.940;3.998;2023-09-30T11:26:05;10.00;;;3.20;;
48945;SDS011;34999;50.940;3.998;2023-09-30T11:28:38;15.23;;;3.43;;
48945;SDS011;34999;50.940;3.998;2023-09-30T11:31:09;12.57;;;3.47;;
48945;SDS011;34999;50.940;3.998;2023-09-30T11:33:52;15.67;;;3.87;;
48945;SDS011;34999;50.940;3.998;2023-09-30T11:36:24;12.57;;;3.60;;
48945;SDS011;34999;50.940;3.998;2023-09-30T11:38:52;13.80;;;3.77;;
48945;SDS011;34999;50.940;3.998;2023-09-30T11:41:21;13.77;;;2.90;;
48945;SDS011;34999;50.940;3.998;2023-09-30T11:43:59;11.90;;;3.17;;
48945;SDS011;34999;50.940;3.998;2023-09-30T11:46:32;10.03;;;3.07;;
48945;SDS011;34999;50.940;3.998;2023-09-30T11:49:25;11.60;;;3.00;;
48945;SDS011;34999;50.940;3.998;2023-09-30T11:51:55;6.67;;;3.00;;
48945;SDS011;34999;50.940;3.998;2023-09-30T11:54:29;6.70;;;3.00;;
48945;SDS011;34999;50.940;3.998;2023-09-30T11:56:58;11.87;;;3.13;;
48945;SDS011;34999;50.940;3.998;2023-09-30T11:59:28;6.37;;;2.90;;
48945;SDS011;34999;50.940;3.998;2023-09-30T12:01:58;8.60;;;2.97;;
48945;SDS011;34999;50.940;3.998;2023-09-30T12:04:29;4.10;;;2.40;;
48945;SDS011;34999;50.940;3.998;2023-09-30T12:06:58;10.03;;;2.60;;
48945;SDS011;34999;50.940;3.998;2023-09-30T12:12:15;12.07;;;2.70;;
48945;SDS011;34999;50.940;3.998;2023-09-30T12:14:43;8.53;;;2.53;;
48945;SDS011;34999;50.940;3.998;2023-09-30T12:17:13;7.53;;;2.13;;
48945;SDS011;34999;50.940;3.998;2023-09-30T12:19:41;5.50;;;2.37;;
48945;SDS011;34999;50.940;3.998;2023-09-30T12:22:10;5.67;;;2.93;;
48945;SDS011;34999;50.940;3.998;2023-09-30T12:24:41;6.40;;;2.53;;
48945;SDS011;34999;50.940;3.998;2023-09-30T12:27:11;7.93;;;2.83;;
48945;SDS011;34999;50.940;3.998;2023-09-30T12:29:40;6.17;;;2.90;;
48945;SDS011;34999;50.940;3.998;2023-09-30T12:34:58;3.77;;;2.30;;
48945;SDS011;34999;50.940;3.998;2023-09-30T12:37:28;7.17;;;2.50;;
48945;SDS011;34999;50.940;3.998;2023-09-30T12:39:56;7.37;;;2.60;;
48945;SDS011;34999;50.940;3.998;2023-09-30T12:42:25;5.60;;;2.30;;
48945;SDS011;34999;50.940;3.998;2023-09-30T12:44:54;7.63;;;2.60;;
48945;SDS011;34999;50.940;3.998;2023-09-30T12:47:22;7.10;;;2.73;;
48945;SDS011;34999;50.940;3.998;2023-09-30T12:49:53;7.90;;;2.87;;
48945;SDS011;34999;50.940;3.998;2023-09-30T12:52:22;3.67;;;2.20;;
48945;SDS011;34999;50.940;3.998;2023-09-30T12:54:52;5.47;;;2.27;;
48945;SDS011;34999;50.940;3.998;2023-09-30T12:57:20;6.50;;;2.37;;
48945;SDS011;34999;50.940;3.998;2023-09-30T12:59:48;3.97;;;2.00;;
48945;SDS011;34999;50.940;3.998;2023-09-30T13:02:17;7.90;;;2.73;;
48945;SDS011;34999;50.940;3.998;2023-09-30T13:04:45;7.23;;;2.47;;
48945;SDS011;34999;50.940;3.998;2023-09-30T13:07:16;4.93;;;2.30;;
48945;SDS011;34999;50.940;3.998;2023-09-30T13:09:44;6.77;;;2.90;;
48945;SDS011;34999;50.940;3.998;2023-09-30T13:12:13;5.17;;;2.30;;
48945;SDS011;34999;50.940;3.998;2023-09-30T13:14:41;8.90;;;2.70;;
48945;SDS011;34999;50.940;3.998;2023-09-30T13:17:09;6.67;;;2.90;;
48945;SDS011;34999;50.940;3.998;2023-09-30T13:19:40;7.50;;;2.53;;
48945;SDS011;34999;50.940;3.998;2023-09-30T13:22:09;8.23;;;2.63;;
48945;SDS011;34999;50.940;3.998;2023-09-30T13:24:46;7.87;;;2.60;;
48945;SDS011;34999;50.940;3.998;2023-09-30T13:27:14;5.37;;;2.40;;
48945;SDS011;34999;50.940;3.998;2023-09-30T13:29:43;4.37;;;2.60;;
48945;SDS011;34999;50.940;3.998;2023-09-30T13:32:13;6.63;;;2.23;;
48945;SDS011;34999;50.940;3.998;2023-09-30T13:34:41;6.10;;;2.60;;
48945;SDS011;34999;50.940;3.998;2023-09-30T13:37:09;6.33;;;2.57;;
48945;SDS011;34999;50.940;3.998;2023-09-30T13:39:40;8.17;;;2.60;;
48945;SDS011;34999;50.940;3.998;2023-09-30T13:42:10;4.20;;;2.43;;
48945;SDS011;34999;50.940;3.998;2023-09-30T13:44:38;3.53;;;2.43;;
48945;SDS011;34999;50.940;3.998;2023-09-30T13:47:07;7.77;;;3.10;;
48945;SDS011;34999;50.940;3.998;2023-09-30T13:49:36;4.87;;;2.40;;
48945;SDS011;34999;50.940;3.998;2023-09-30T13:52:04;3.93;;;2.07;;
48945;SDS011;34999;50.940;3.998;2023-09-30T13:54:33;5.17;;;2.40;;
48945;SDS011;34999;50.940;3.998;2023-09-30T13:57:01;4.20;;;2.50;;
48945;SDS011;34999;50.940;3.998;2023-09-30T13:59:34;6.87;;;2.90;;
48945;SDS011;34999;50.940;3.998;2023-09-30T14:02:03;5.73;;;2.80;;
48945;SDS011;34999;50.940;3.998;2023-09-30T14:04:31;6.00;;;2.30;;
48945;SDS011;34999;50.940;3.998;2023-09-30T14:07:02;5.83;;;2.57;;
48945;SDS011;34999;50.940;3.998;2023-09-30T14:12:19;4.70;;;2.20;;
48945;SDS011;34999;50.940;3.998;2023-09-30T14:14:49;6.43;;;2.70;;
48945;SDS011;34999;50.940;3.998;2023-09-30T14:17:18;6.93;;;2.50;;
48945;SDS011;34999;50.940;3.998;2023-09-30T14:19:46;8.80;;;2.70;;
48945;SDS011;34999;50.940;3.998;2023-09-30T14:22:14;8.80;;;2.73;;
48945;SDS011;34999;50.940;3.998;2023-09-30T14:24:43;5.20;;;2.13;;
48945;SDS011;34999;50.940;3.998;2023-09-30T14:27:13;6.17;;;2.50;;
48945;SDS011;34999;50.940;3.998;2023-09-30T14:29:41;6.30;;;2.27;;
48945;SDS011;34999;50.940;3.998;2023-09-30T14:32:11;10.20;;;2.87;;
48945;SDS011;34999;50.940;3.998;2023-09-30T14:34:39;9.27;;;2.80;;
48945;SDS011;34999;50.940;3.998;2023-09-30T14:37:10;10.30;;;2.73;;
48945;SDS011;34999;50.940;3.998;2023-09-30T14:39:39;6.13;;;2.57;;
48945;SDS011;34999;50.940;3.998;2023-09-30T14:42:08;7.47;;;2.63;;
48945;SDS011;34999;50.940;3.998;2023-09-30T14:44:37;6.93;;;2.40;;
48945;SDS011;34999;50.940;3.998;2023-09-30T14:47:05;11.33;;;2.77;;
48945;SDS011;34999;50.940;3.998;2023-09-30T14:49:35;4.63;;;1.90;;
48945;SDS011;34999;50.940;3.998;2023-09-30T14:52:03;5.87;;;2.40;;
48945;SDS011;34999;50.940;3.998;2023-09-30T14:54:32;4.03;;;2.27;;
48945;SDS011;34999;50.940;3.998;2023-09-30T14:57:01;8.93;;;2.83;;
48945;SDS011;34999;50.940;3.998;2023-09-30T14:59:32;6.73;;;2.60;;
48945;SDS011;34999;50.940;3.998;2023-09-30T15:02:00;9.73;;;2.90;;